Time;durP1;ratioP1;P1;durP2;ratioP2;P2;SDS_P1;SDS_P2;PMS_P1;PMS_P2;Temp;Humidity;BMP_temperature;BMP_pressure;BME280_temperature;BME280_humidity;BME280_pressure;Samples;Min_cycle;Max_cycle;Signal;HPM_P1;HPM_P2
2022/05/13 00:01:18;;;;;;;3.55;2.20;;;13.50;83.30;;;;;;4996112;28;101218;-72
2022/05/13 00:03:45;;;;;;;2.90;2.40;;;13.50;83.30;;;;;;5014075;28;98439;-71
2022/05/13 00:06:13;;;;;;;4.57;2.40;;;13.40;83.50;;;;;;5014047;28;98418;-71
2022/05/13 00:08:40;;;;;;;2.90;2.10;;;13.40;83.90;;;;;;4994825;28;109631;-72
2022/05/13 00:11:08;;;;;;;4.07;2.50;;;13.40;83.80;;;;;;4995544;28;100503;-71
2022/05/13 00:13:36;;;;;;;3.38;3.08;;;13.40;84.00;;;;;;5013637;28;99321;-71
2022/05/13 00:16:04;;;;;;;5.78;2.63;;;13.40;83.90;;;;;;4996194;28;98457;-72
2022/05/13 00:18:32;;;;;;;4.53;2.17;;;13.40;84.10;;;;;;5013480;28;98518;-72
2022/05/13 00:21:00;;;;;;;6.28;3.28;;;13.40;84.20;;;;;;5012293;28;101841;-71
2022/05/13 00:23:27;;;;;;;6.07;3.20;;;13.40;84.20;;;;;;4995627;28;99073;-71
2022/05/13 00:25:54;;;;;;;5.93;2.78;;;13.40;84.40;;;;;;5014495;28;97912;-71
2022/05/13 00:28:21;;;;;;;2.88;2.60;;;13.30;84.60;;;;;;5012506;28;98686;-71
2022/05/13 00:30:49;;;;;;;5.38;2.70;;;13.30;84.80;;;;;;5013465;28;99309;-71
2022/05/13 00:33:17;;;;;;;5.07;2.50;;;13.30;84.90;;;;;;5012984;28;99163;-72
2022/05/13 00:35:45;;;;;;;3.53;2.65;;;13.30;85.20;;;;;;4995854;28;98591;-72
2022/05/13 00:38:11;;;;;;;6.38;2.50;;;13.30;85.20;;;;;;5013449;28;98582;-71
2022/05/13 00:40:39;;;;;;;4.18;2.92;;;13.30;85.40;;;;;;5013531;28;99292;-72
2022/05/13 00:43:09;;;;;;;5.72;3.20;;;13.30;85.60;;;;;;5013317;28;99058;-71
2022/05/13 00:45:37;;;;;;;5.28;2.60;;;13.30;85.60;;;;;;5013513;28;98551;-71
2022/05/13 00:48:05;;;;;;;6.50;3.03;;;13.30;85.80;;;;;;4995354;28;100347;-71
2022/05/13 00:50:36;;;;;;;8.63;3.13;;;13.30;86.00;;;;;;4994912;28;103554;-71
2022/05/13 00:53:03;;;;;;;3.97;3.00;;;13.30;86.00;;;;;;4995695;28;99018;-71
2022/05/13 00:55:39;;;;;;;7.03;2.58;;;13.30;86.10;;;;;;4995546;28;98441;-71
2022/05/13 00:58:11;;;;;;;4.40;2.70;;;13.40;86.20;;;;;;5013231;28;99133;-71
2022/05/13 01:00:39;;;;;;;3.35;2.60;;;13.40;86.30;;;;;;5011769;28;99207;-72
2022/05/13 01:03:07;;;;;;;6.60;2.83;;;13.40;86.50;;;;;;5013067;28;99019;-71
2022/05/13 01:05:35;;;;;;;6.13;3.42;;;13.40;87.10;;;;;;5013279;28;98497;-72
2022/05/13 01:08:06;;;;;;;5.13;3.10;;;13.40;86.60;;;;;;4995584;28;98581;-72
2022/05/13 01:10:36;;;;;;;3.67;2.78;;;13.50;86.60;;;;;;4995086;28;99963;-71
2022/05/13 01:13:07;;;;;;;5.53;2.80;;;13.50;87.20;;;;;;5011495;28;101548;-71
2022/05/13 01:15:37;;;;;;;6.18;2.85;;;13.50;87.00;;;;;;4995394;28;98120;-71
2022/05/13 01:18:05;;;;;;;5.32;2.70;;;13.60;87.30;;;;;;5013373;28;98423;-71
2022/05/13 01:20:39;;;;;;;5.53;3.00;;;13.60;87.30;;;;;;5012412;28;99263;-71
2022/05/13 01:23:11;;;;;;;6.20;3.30;;;13.60;87.40;;;;;;5012507;28;99155;-71
2022/05/13 01:25:43;;;;;;;4.38;3.05;;;13.70;87.50;;;;;;4978542;28;98589;-72
2022/05/13 01:28:14;;;;;;;5.60;3.05;;;13.70;87.50;;;;;;5012788;28;98509;-71
2022/05/13 01:30:45;;;;;;;4.45;3.10;;;13.70;87.70;;;;;;4978172;28;100348;-71
2022/05/13 01:33:14;;;;;;;6.20;3.83;;;13.70;87.90;;;;;;5012772;28;99082;-71
2022/05/13 01:35:46;;;;;;;7.60;3.53;;;13.70;88.00;;;;;;5013160;28;98882;-71
2022/05/13 01:38:13;;;;;;;6.88;3.03;;;13.80;88.10;;;;;;5011559;28;98595;-72
2022/05/13 01:40:41;;;;;;;7.05;3.25;;;13.80;88.10;;;;;;5012394;28;98618;-71
2022/05/13 01:43:09;;;;;;;3.40;3.05;;;13.80;88.20;;;;;;4994520;28;100773;-71
2022/05/13 01:45:37;;;;;;;7.07;3.33;;;13.80;88.30;;;;;;5012085;28;103551;-71
2022/05/13 01:48:06;;;;;;;6.03;3.20;;;13.80;88.30;;;;;;5012258;28;99271;-71
2022/05/13 01:50:35;;;;;;;6.10;3.38;;;13.90;88.20;;;;;;5012200;28;99336;-71
2022/05/13 01:53:03;;;;;;;6.90;3.50;;;13.90;88.00;;;;;;5011943;28;99134;-72
2022/05/13 01:55:30;;;;;;;6.75;3.28;;;13.90;88.00;;;;;;5011222;28;98490;-71
2022/05/13 01:57:57;;;;;;;9.05;3.50;;;13.90;88.00;;;;;;4978051;28;98583;-69
2022/05/13 02:00:26;;;;;;;6.72;3.10;;;14.00;87.80;;;;;;4994335;28;99346;-72
2022/05/13 02:05:38;;;;;;;6.32;2.80;;;14.00;87.50;;;;;;4994749;28;97844;-71
2022/05/13 02:08:05;;;;;;;4.78;3.25;;;14.00;87.30;;;;;;5011032;28;98543;-72
2022/05/13 02:10:32;;;;;;;5.90;3.47;;;14.00;87.10;;;;;;4993706;28;112340;-71
2022/05/13 02:12:59;;;;;;;4.72;3.70;;;14.00;87.00;;;;;;4996307;28;99234;-71
2022/05/13 02:15:26;;;;;;;7.32;3.05;;;14.00;87.00;;;;;;4998253;28;98613;-72
2022/05/13 02:17:53;;;;;;;6.53;2.83;;;14.00;86.70;;;;;;4997776;28;98594;-72
2022/05/13 02:20:20;;;;;;;5.18;2.85;;;14.00;86.60;;;;;;4980408;28;105015;-72
2022/05/13 02:22:47;;;;;;;5.53;3.60;;;14.10;86.50;;;;;;5015353;28;98918;-72
2022/05/13 02:25:14;;;;;;;6.10;3.17;;;14.10;86.50;;;;;;5015925;28;98487;-72
2022/05/13 02:27:41;;;;;;;7.18;3.15;;;14.10;86.50;;;;;;5015524;28;98467;-71
2022/05/13 02:30:09;;;;;;;5.80;3.10;;;14.10;86.30;;;;;;4997680;28;101242;-72
2022/05/13 02:32:36;;;;;;;4.53;2.92;;;14.10;86.20;;;;;;4996818;28;100995;-71
2022/05/13 02:35:04;;;;;;;5.85;2.85;;;14.10;86.30;;;;;;5014676;28;98511;-72
2022/05/13 02:37:31;;;;;;;4.55;2.83;;;14.10;86.40;;;;;;5013742;28;99215;-72
2022/05/13 02:39:58;;;;;;;3.83;2.65;;;14.10;86.50;;;;;;5015178;28;99331;-72
2022/05/13 02:42:25;;;;;;;5.63;3.08;;;14.10;86.40;;;;;;5015163;28;98931;-71
2022/05/13 02:44:52;;;;;;;3.28;2.70;;;14.10;86.60;;;;;;5014471;28;98985;-71
2022/05/13 02:47:19;;;;;;;8.23;3.03;;;14.10;86.60;;;;;;4997660;28;98553;-72
2022/05/13 02:49:46;;;;;;;7.47;3.40;;;14.10;86.70;;;;;;5015002;28;99194;-71
2022/05/13 02:52:13;;;;;;;5.97;3.03;;;14.10;86.70;;;;;;5015019;28;99069;-71
2022/05/13 02:54:40;;;;;;;4.15;2.78;;;14.10;86.70;;;;;;4997632;28;97725;-72
2022/05/13 02:57:07;;;;;;;7.53;3.17;;;14.10;86.90;;;;;;4997141;28;103914;-72
2022/05/13 02:59:34;;;;;;;5.63;2.83;;;14.10;86.80;;;;;;5014860;28;99360;-70
2022/05/13 03:02:01;;;;;;;10.32;4.22;;;14.00;87.20;;;;;;5013163;28;99250;-69
2022/05/13 03:04:28;;;;;;;6.78;2.85;;;13.90;87.30;;;;;;5015348;28;98474;-69
2022/05/13 03:06:55;;;;;;;5.20;3.15;;;14.00;87.40;;;;;;5013908;28;98561;-69
2022/05/13 03:09:22;;;;;;;4.90;2.88;;;13.90;87.60;;;;;;4996738;28;102007;-69
2022/05/13 03:11:48;;;;;;;8.35;3.50;;;13.90;87.80;;;;;;4996420;28;101717;-70
2022/05/13 03:14:15;;;;;;;6.80;3.03;;;13.80;88.10;;;;;;5014979;28;98484;-69
2022/05/13 03:16:42;;;;;;;7.70;3.08;;;13.80;88.30;;;;;;5014511;28;98543;-69
2022/05/13 03:19:11;;;;;;;9.60;3.20;;;13.80;88.50;;;;;;4997045;28;98455;-69
2022/05/13 03:21:38;;;;;;;4.82;2.80;;;13.70;88.40;;;;;;5013110;28;100862;-69
2022/05/13 03:24:05;;;;;;;5.22;3.00;;;13.80;88.60;;;;;;5014942;28;98604;-70
2022/05/13 03:26:32;;;;;;;6.07;3.13;;;13.80;88.50;;;;;;4996261;28;99321;-69
2022/05/13 03:28:59;;;;;;;5.45;3.72;;;13.80;88.50;;;;;;5014371;28;99284;-69
2022/05/13 03:31:26;;;;;;;7.45;3.13;;;13.80;88.70;;;;;;4996522;28;100295;-69
2022/05/13 03:33:53;;;;;;;6.88;3.25;;;13.80;88.80;;;;;;4996869;28;98500;-69
2022/05/13 03:36:20;;;;;;;6.95;3.30;;;13.80;88.70;;;;;;4997023;28;98498;-69
2022/05/13 03:38:47;;;;;;;5.68;3.17;;;13.80;88.70;;;;;;4995973;28;101711;-70
2022/05/13 03:41:14;;;;;;;7.20;3.25;;;13.80;88.80;;;;;;4996615;28;98873;-69
2022/05/13 03:43:41;;;;;;;8.18;3.30;;;13.80;88.80;;;;;;4996573;28;97859;-69
2022/05/13 03:46:08;;;;;;;10.15;3.40;;;13.80;88.80;;;;;;4996850;28;98474;-69
2022/05/13 03:48:35;;;;;;;7.25;3.20;;;13.80;88.90;;;;;;4996271;28;99353;-69
2022/05/13 03:51:03;;;;;;;7.20;3.40;;;13.80;89.00;;;;;;5013736;28;99253;-70
2022/05/13 03:53:30;;;;;;;6.68;3.58;;;13.80;88.80;;;;;;4996800;28;98618;-69
2022/05/13 03:55:57;;;;;;;7.57;3.22;;;13.80;89.00;;;;;;5014184;28;98494;-69
2022/05/13 03:58:23;;;;;;;7.13;3.42;;;13.80;88.80;;;;;;5013867;28;99201;-69
2022/05/13 04:00:51;;;;;;;10.07;2.53;;;13.80;88.90;;;;;;4995946;28;99582;-70
2022/05/13 04:03:19;;;;;;;6.32;2.90;;;13.80;88.90;;;;;;4996715;28;98645;-69
2022/05/13 04:11:17;;;;;;;5.72;3.30;;;13.80;89.10;;;;;;4981913;28;100962;-70
2022/05/13 04:16:29;;;;;;;6.05;3.38;;;13.90;89.40;;;;;;5014020;28;99154;-70
2022/05/13 04:18:58;;;;;;;5.97;3.08;;;13.90;89.30;;;;;;4995075;28;101799;-70
2022/05/13 04:21:29;;;;;;;7.85;3.80;;;13.90;89.40;;;;;;4996171;28;101648;-69
2022/05/13 04:23:58;;;;;;;7.10;3.17;;;13.90;89.50;;;;;;5014091;28;98500;-69
2022/05/13 04:26:25;;;;;;;5.97;3.05;;;13.90;89.80;;;;;;5014091;28;98505;-70
2022/05/13 04:28:53;;;;;;;8.65;3.47;;;13.90;89.80;;;;;;4995156;28;101737;-69
2022/05/13 04:31:23;;;;;;;8.82;3.10;;;13.90;89.70;;;;;;5013491;28;99050;-69
2022/05/13 04:33:51;;;;;;;8.00;3.00;;;13.90;89.80;;;;;;5013896;28;97775;-70
2022/05/13 04:36:19;;;;;;;9.15;3.05;;;13.90;90.00;;;;;;5013030;28;98410;-69
2022/05/13 04:38:47;;;;;;;5.40;3.10;;;13.90;90.00;;;;;;4995325;28;101192;-69
2022/05/13 04:44:00;;;;;;;8.50;3.85;;;14.00;90.10;;;;;;4995636;28;99468;-69
2022/05/13 04:46:27;;;;;;;12.45;3.90;;;14.00;90.20;;;;;;5013646;28;98530;-69
2022/05/13 04:48:54;;;;;;;11.02;3.10;;;13.90;90.20;;;;;;4978200;28;104789;-69
2022/05/13 04:51:21;;;;;;;9.20;3.20;;;14.00;90.20;;;;;;5013228;28;99105;-69
2022/05/13 04:53:51;;;;;;;7.28;3.05;;;14.00;90.10;;;;;;5013367;28;98499;-69
2022/05/13 04:56:19;;;;;;;12.73;3.78;;;14.10;90.20;;;;;;5013397;28;98566;-69
2022/05/13 04:58:47;;;;;;;8.13;3.88;;;14.10;90.20;;;;;;5012019;28;98404;-70
2022/05/13 05:01:15;;;;;;;12.32;3.50;;;14.10;90.10;;;;;;4995276;28;98610;-72
2022/05/13 05:03:44;;;;;;;7.10;3.50;;;14.10;90.20;;;;;;5013286;28;98443;-71
2022/05/13 05:06:13;;;;;;;9.65;3.22;;;14.10;90.30;;;;;;5011279;28;99708;-71
2022/05/13 05:08:40;;;;;;;7.88;3.00;;;14.20;90.30;;;;;;5012833;28;99391;-71
2022/05/13 05:11:09;;;;;;;9.75;3.67;;;14.20;90.30;;;;;;4994314;28;101513;-71
2022/05/13 05:13:39;;;;;;;11.95;3.30;;;14.20;90.30;;;;;;5013201;28;98605;-72
2022/05/13 05:16:07;;;;;;;13.48;4.18;;;14.30;90.40;;;;;;5013154;28;98506;-72
2022/05/13 05:18:36;;;;;;;6.13;3.15;;;14.30;90.30;;;;;;4994760;28;99422;-72
2022/05/13 05:21:04;;;;;;;11.52;3.65;;;14.30;90.40;;;;;;4994552;28;101845;-72
2022/05/13 05:23:33;;;;;;;11.20;3.30;;;14.30;90.40;;;;;;4995222;28;97710;-72
2022/05/13 05:26:01;;;;;;;14.77;4.00;;;14.30;90.40;;;;;;5011096;28;98687;-72
2022/05/13 05:28:28;;;;;;;8.55;3.33;;;14.30;90.50;;;;;;5011267;28;101796;-71
2022/05/13 05:31:00;;;;;;;10.02;3.55;;;14.40;90.50;;;;;;4993665;28;104807;-69
2022/05/13 05:33:28;;;;;;;10.23;4.03;;;14.40;90.50;;;;;;4994972;28;98606;-71
2022/05/13 05:35:55;;;;;;;12.30;3.35;;;14.50;90.50;;;;;;5011150;28;98596;-71
2022/05/13 05:38:23;;;;;;;15.27;4.00;;;14.60;90.40;;;;;;5012312;28;99228;-72
2022/05/13 05:40:51;;;;;;;10.25;3.35;;;14.70;90.30;;;;;;5012408;28;101729;-72
2022/05/13 05:43:19;;;;;;;10.57;3.45;;;14.80;90.20;;;;;;4994980;28;98929;-72
2022/05/13 05:45:46;;;;;;;8.35;3.33;;;14.90;90.10;;;;;;5012783;28;98495;-72
2022/05/13 05:48:21;;;;;;;11.02;3.67;;;15.00;90.00;;;;;;4994014;28;98623;-72
2022/05/13 05:50:51;;;;;;;9.82;4.05;;;15.20;89.80;;;;;;4994626;28;98518;-72
2022/05/13 05:59:05;;;;;;;12.77;3.70;;;15.50;88.90;;;;;;4993692;28;101881;-72
2022/05/13 06:01:32;;;;;;;10.88;3.80;;;15.60;88.70;;;;;;4977017;28;109348;-70
2022/05/13 06:04:00;;;;;;;12.30;4.40;;;15.70;88.60;;;;;;5012380;28;98959;-70
2022/05/13 06:06:27;;;;;;;26.38;4.75;;;15.80;88.30;;;;;;4977879;28;98570;-72
2022/05/13 06:08:57;;;;;;;9.55;4.20;;;16.00;88.00;;;;;;4977368;28;101843;-70
2022/05/13 06:11:24;;;;;;;9.70;4.20;;;16.00;87.70;;;;;;4994023;28;101624;-70
2022/05/13 06:13:53;;;;;;;11.95;3.53;;;16.20;87.60;;;;;;4994425;28;97772;-70
2022/05/13 06:16:24;;;;;;;10.70;3.45;;;16.40;87.00;;;;;;4994356;28;98655;-70
2022/05/13 06:18:52;;;;;;;10.38;4.05;;;16.80;86.10;;;;;;4991610;28;101929;-72
2022/05/13 06:21:19;;;;;;;12.85;4.28;;;17.00;85.30;;;;;;4994064;28;99196;-72
2022/05/13 06:23:46;;;;;;;9.70;3.72;;;17.30;84.20;;;;;;5010890;28;99022;-72
2022/05/13 06:26:13;;;;;;;10.63;3.65;;;17.60;83.40;;;;;;4993805;28;98635;-72
2022/05/13 06:28:39;;;;;;;10.43;4.35;;;17.90;82.50;;;;;;5011748;28;99236;-72
2022/05/13 06:31:07;;;;;;;12.45;4.20;;;18.00;81.90;;;;;;5011451;28;99147;-70
2022/05/13 06:33:35;;;;;;;8.38;3.67;;;18.10;81.30;;;;;;4993976;28;98465;-70
2022/05/13 06:36:02;;;;;;;10.00;3.13;;;18.20;80.80;;;;;;4994376;28;98555;-70
2022/05/13 06:38:29;;;;;;;10.35;3.75;;;18.20;80.20;;;;;;4993969;28;101000;-73
2022/05/13 06:40:56;;;;;;;10.77;3.95;;;18.20;79.90;;;;;;4977137;28;100941;-70
2022/05/13 06:43:23;;;;;;;10.55;4.78;;;18.20;79.80;;;;;;5011859;28;98486;-70
2022/05/13 06:45:50;;;;;;;11.95;3.22;;;18.30;79.80;;;;;;5010320;28;99286;-70
2022/05/13 06:48:18;;;;;;;12.52;3.10;;;18.40;79.50;;;;;;5011421;28;99215;-70
2022/05/13 06:50:47;;;;;;;7.80;4.20;;;18.50;79.20;;;;;;4993665;28;99130;-70
2022/05/13 06:53:17;;;;;;;9.35;3.17;;;18.60;78.80;;;;;;5010230;28;98576;-70
2022/05/13 06:55:44;;;;;;;9.52;3.08;;;18.70;78.40;;;;;;5011751;28;98498;-70
2022/05/13 06:58:12;;;;;;;8.27;3.15;;;18.90;78.00;;;;;;4994129;28;101786;-70
2022/05/13 07:00:40;;;;;;;11.13;4.60;;;19.10;77.50;;;;;;5013561;28;99441;-70
2022/05/13 07:03:12;;;;;;;9.98;3.20;;;19.20;77.00;;;;;;4997378;28;97768;-70
2022/05/13 07:05:39;;;;;;;6.50;2.90;;;19.40;76.30;;;;;;5015457;28;98413;-70
2022/05/13 07:08:07;;;;;;;7.38;3.83;;;19.60;75.90;;;;;;5012652;28;109840;-70
2022/05/13 07:10:34;;;;;;;9.68;2.47;;;19.80;75.30;;;;;;5014178;28;99301;-70
2022/05/13 07:13:06;;;;;;;10.25;2.90;;;19.90;74.20;;;;;;5013788;28;98558;-70
2022/05/13 07:15:33;;;;;;;12.60;3.53;;;20.10;73.50;;;;;;5015412;28;98513;-70
2022/05/13 07:18:01;;;;;;;9.20;3.70;;;20.30;72.60;;;;;;5013324;28;99303;-70
2022/05/13 07:20:28;;;;;;;8.75;2.60;;;20.40;72.10;;;;;;4996077;28;99452;-70
2022/05/13 07:22:56;;;;;;;10.63;3.60;;;20.30;71.60;;;;;;4996662;28;98607;-70
2022/05/13 07:25:24;;;;;;;7.65;2.78;;;20.20;71.80;;;;;;5014566;28;98523;-70
2022/05/13 07:27:51;;;;;;;7.80;3.50;;;20.00;72.10;;;;;;5014753;28;98650;-70
2022/05/13 07:30:19;;;;;;;7.85;3.75;;;19.90;72.70;;;;;;5014075;28;98434;-70
2022/05/13 07:32:46;;;;;;;7.60;3.20;;;19.70;72.90;;;;;;5014916;28;98436;-70
2022/05/13 07:35:13;;;;;;;7.65;4.28;;;19.70;73.20;;;;;;5014184;28;99727;-70
2022/05/13 07:37:40;;;;;;;7.97;3.13;;;19.70;73.20;;;;;;4996538;28;99725;-70
2022/05/13 07:42:54;;;;;;;10.20;2.63;;;19.60;72.60;;;;;;5014813;28;98475;-70
2022/05/13 07:45:21;;;;;;;6.00;2.22;;;19.50;71.90;;;;;;5014533;28;98851;-70
2022/05/13 07:47:48;;;;;;;7.93;3.90;;;19.50;71.80;;;;;;4996233;28;101896;-70
2022/05/13 07:50:16;;;;;;;6.07;3.17;;;19.70;71.30;;;;;;5012507;28;100040;-70
2022/05/13 07:52:43;;;;;;;6.13;2.45;;;19.80;70.70;;;;;;5013787;28;98573;-70
2022/05/13 07:55:11;;;;;;;7.70;3.28;;;20.00;70.80;;;;;;4996673;28;98494;-70
2022/05/13 07:57:40;;;;;;;5.82;2.08;;;20.30;69.70;;;;;;5012833;28;99237;-70
2022/05/13 08:00:24;;;;;;;5.05;4.35;;;20.80;69.20;;;;;;4995902;28;99296;-71
2022/05/13 08:02:53;;;;;;;6.53;4.78;;;21.80;67.20;;;;;;4996354;28;98999;-70
2022/05/13 08:05:20;;;;;;;2.55;2.20;;;23.10;63.90;;;;;;4996353;28;98485;-71
2022/05/13 08:07:47;;;;;;;3.97;1.48;;;24.10;61.10;;;;;;5012763;28;99345;-71
2022/05/13 08:10:15;;;;;;;5.85;3.67;;;24.90;58.40;;;;;;4994693;28;98944;-71
2022/05/13 08:12:43;;;;;;;5.35;2.65;;;25.60;55.30;;;;;;4979210;28;98584;-71
2022/05/13 08:15:11;;;;;;;4.68;1.30;;;26.20;52.00;;;;;;5013977;28;98482;-71
2022/05/13 08:17:38;;;;;;;5.68;2.30;;;26.30;49.70;;;;;;4995853;28;98528;-71
2022/05/13 08:20:05;;;;;;;3.80;2.25;;;26.10;48.60;;;;;;5012037;28;99294;-71
2022/05/13 08:22:32;;;;;;;4.90;1.48;;;25.90;48.80;;;;;;5012579;28;98899;-71
2022/05/13 08:24:59;;;;;;;3.88;2.42;;;25.60;49.00;;;;;;4978857;28;99355;-71
2022/05/13 08:27:26;;;;;;;3.45;2.20;;;25.30;49.40;;;;;;4995272;28;99375;-71
2022/05/13 08:29:53;;;;;;;4.95;1.85;;;25.10;49.30;;;;;;5012843;28;111175;-71
2022/05/13 08:32:20;;;;;;;2.45;1.35;;;25.10;49.70;;;;;;4995453;28;98651;-71
2022/05/13 08:34:47;;;;;;;4.20;2.83;;;25.00;49.90;;;;;;5013776;28;98578;-70
2022/05/13 08:37:54;;;;;;;4.95;2.30;;;24.70;49.80;;;;;;4995154;28;102030;-71
2022/05/13 08:41:01;;;;;;;4.53;2.42;;;24.40;49.70;;;;;;4994832;28;101578;-71
2022/05/13 08:43:35;;;;;;;3.67;1.45;;;24.00;50.70;;;;;;5013647;28;97770;-71
2022/05/13 08:46:27;;;;;;;3.85;2.00;;;23.50;52.20;;;;;;4995912;28;98552;-70
2022/05/13 08:49:05;;;;;;;3.78;1.63;;;23.00;53.60;;;;;;5013144;28;99352;-70
2022/05/13 08:51:41;;;;;;;3.75;2.78;;;22.40;55.70;;;;;;4994440;28;100265;-71
2022/05/13 08:54:08;;;;;;;4.10;1.52;;;22.20;56.30;;;;;;5013701;28;98545;-70
2022/05/13 08:56:35;;;;;;;3.63;2.33;;;22.10;56.70;;;;;;4995054;28;98640;-70
2022/05/13 08:59:11;;;;;;;5.28;1.90;;;22.00;57.10;;;;;;5012998;28;99224;-70
2022/05/13 09:01:45;;;;;;;4.68;1.77;;;21.90;57.70;;;;;;5012902;28;99019;-70
2022/05/13 09:04:37;;;;;;;3.60;1.40;;;21.70;57.50;;;;;;5013614;28;98460;-70
2022/05/13 09:07:13;;;;;;;3.45;2.67;;;21.60;57.60;;;;;;5011522;28;98606;-70
2022/05/13 09:09:43;;;;;;;5.90;1.73;;;21.50;58.50;;;;;;5013076;28;98608;-70
2022/05/13 09:12:21;;;;;;;2.90;1.52;;;21.40;58.40;;;;;;5012640;28;99387;-70
2022/05/13 09:14:57;;;;;;;4.25;1.80;;;21.40;59.10;;;;;;4995474;28;98572;-70
2022/05/13 09:17:41;;;;;;;2.35;1.25;;;21.40;59.10;;;;;;4994519;28;99755;-70
2022/05/13 09:20:10;;;;;;;2.38;2.17;;;21.50;59.20;;;;;;5012395;28;99403;-70
2022/05/13 09:22:42;;;;;;;5.13;3.25;;;21.50;59.20;;;;;;4994016;28;101593;-70
2022/05/13 09:25:26;;;;;;;3.80;2.22;;;21.80;59.10;;;;;;5011625;28;98522;-70
2022/05/13 09:28:16;;;;;;;4.20;3.22;;;22.20;58.90;;;;;;5011616;28;98608;-70
2022/05/13 09:30:47;;;;;;;6.53;2.00;;;22.30;56.50;;;;;;5012669;28;99286;-70
2022/05/13 09:33:20;;;;;;;4.85;1.70;;;22.40;55.90;;;;;;5012551;28;99465;-70
2022/05/13 09:35:49;;;;;;;3.42;2.20;;;22.50;54.90;;;;;;5013250;28;97688;-70
2022/05/13 09:38:20;;;;;;;5.32;2.92;;;22.30;54.40;;;;;;5011129;28;98556;-70
2022/05/13 09:41:05;;;;;;;4.68;1.70;;;22.30;54.90;;;;;;5010969;28;101844;-70
2022/05/13 09:43:32;;;;;;;5.88;3.33;;;22.30;55.80;;;;;;5010627;28;101643;-70
2022/05/13 09:46:09;;;;;;;2.67;1.60;;;22.10;56.70;;;;;;5012479;28;98521;-70
2022/05/13 09:48:50;;;;;;;4.07;1.75;;;22.10;56.80;;;;;;5012579;28;98500;-70
2022/05/13 09:51:37;;;;;;;4.90;2.45;;;22.10;56.70;;;;;;4994663;28;99291;-70
2022/05/13 09:54:05;;;;;;;4.50;1.92;;;22.20;56.60;;;;;;5010783;28;101401;-70
2022/05/13 09:57:12;;;;;;;7.60;2.17;;;22.10;57.20;;;;;;4994382;28;98431;-70
2022/05/13 09:59:45;;;;;;;7.35;2.17;;;22.10;57.30;;;;;;5009224;28;98537;-70
2022/05/13 10:02:21;;;;;;;2.47;2.17;;;22.10;57.20;;;;;;5012740;28;98637;-70
2022/05/13 10:04:54;;;;;;;3.47;1.63;;;22.10;56.50;;;;;;4993996;28;100954;-70
2022/05/13 10:07:24;;;;;;;3.50;1.20;;;22.20;56.40;;;;;;5012539;28;98482;-70
2022/05/13 10:15:45;;;;;;;3.17;2.70;;;21.50;57.40;;;;;;5011925;28;98985;-70
2022/05/13 10:18:26;;;;;;;4.13;1.70;;;21.40;58.60;;;;;;4994966;28;98588;-70
2022/05/13 10:21:03;;;;;;;5.65;1.73;;;21.40;58.50;;;;;;5011966;28;98618;-70
2022/05/13 10:23:40;;;;;;;4.22;2.63;;;21.20;58.80;;;;;;5012038;28;99198;-70
2022/05/13 10:26:15;;;;;;;3.78;1.90;;;21.10;59.00;;;;;;5012002;28;98955;-70
2022/05/13 10:29:03;;;;;;;5.65;2.25;;;21.10;59.20;;;;;;4994461;28;97894;-70
2022/05/13 10:31:37;;;;;;;5.10;1.95;;;21.10;59.80;;;;;;5012295;28;98391;-70
2022/05/13 10:34:17;;;;;;;2.22;1.15;;;21.20;59.50;;;;;;5013901;28;100194;-70
2022/05/13 10:36:51;;;;;;;2.20;1.10;;;21.60;59.00;;;;;;5014556;28;99768;-70
2022/05/13 10:39:31;;;;;;;4.05;1.73;;;21.80;58.00;;;;;;5014449;28;98618;-70
2022/05/13 10:42:03;;;;;;;6.70;1.33;;;21.90;57.30;;;;;;5014432;28;98494;-70
2022/05/13 10:44:46;;;;;;;5.50;1.35;;;21.90;56.80;;;;;;4996912;28;100284;-70
2022/05/13 10:47:22;;;;;;;3.78;1.13;;;22.00;56.60;;;;;;5014922;28;99084;-70
2022/05/13 10:49:50;;;;;;;5.35;2.35;;;22.10;57.00;;;;;;5015142;28;98999;-70
2022/05/13 10:52:53;;;;;;;3.75;1.88;;;22.20;56.50;;;;;;5015259;28;98515;-70
2022/05/13 10:55:36;;;;;;;3.90;1.10;;;22.30;55.40;;;;;;5015203;28;99616;-70
2022/05/13 10:58:43;;;;;;;3.22;1.38;;;22.20;55.80;;;;;;4996794;28;100741;-70
2022/05/13 11:01:44;;;;;;;2.15;1.27;;;22.30;55.80;;;;;;4997365;28;98897;-70
2022/05/13 11:04:28;;;;;;;4.15;1.70;;;22.30;56.50;;;;;;5013780;28;99176;-70
2022/05/13 11:07:01;;;;;;;3.70;1.70;;;22.20;57.50;;;;;;4996197;28;102121;-70
2022/05/13 11:09:52;;;;;;;3.05;2.35;;;22.30;57.30;;;;;;5014492;28;98918;-70
2022/05/13 11:12:44;;;;;;;3.78;1.30;;;22.30;56.80;;;;;;5014997;28;98998;-70
2022/05/13 11:15:40;;;;;;;3.70;1.55;;;22.40;56.60;;;;;;5015266;28;98522;-70
2022/05/13 11:18:32;;;;;;;4.50;3.15;;;22.50;56.30;;;;;;4994026;28;99364;-71
2022/05/13 11:21:07;;;;;;;4.90;2.45;;;22.70;55.80;;;;;;4969563;28;99654;-70
2022/05/13 11:27:11;;;;;;;2.45;1.42;;;23.30;55.20;;;;;;4996410;28;98614;-70
2022/05/13 11:30:02;;;;;;;6.00;2.53;;;23.30;54.70;;;;;;5014503;28;99499;-70
2022/05/13 11:32:55;;;;;;;4.28;2.38;;;23.20;54.50;;;;;;4996619;28;99238;-70
2022/05/13 11:35:38;;;;;;;3.00;2.22;;;23.10;54.50;;;;;;5004447;28;98943;-70
2022/05/13 11:38:39;;;;;;;3.93;1.73;;;23.00;54.10;;;;;;5014504;28;98619;-70
2022/05/13 11:41:10;;;;;;;3.72;2.17;;;23.00;53.80;;;;;;5014393;28;99822;-70
2022/05/13 11:44:00;;;;;;;3.17;2.22;;;22.90;54.20;;;;;;5012630;28;99087;-71
2022/05/13 11:46:30;;;;;;;3.60;1.85;;;22.80;54.00;;;;;;5013784;28;98678;-70
2022/05/13 11:49:07;;;;;;;5.22;2.45;;;22.70;53.30;;;;;;5014288;28;98793;-70
2022/05/13 11:51:35;;;;;;;4.30;2.00;;;22.70;52.30;;;;;;5014461;28;98420;-70
2022/05/13 11:54:02;;;;;;;3.08;1.20;;;22.50;52.40;;;;;;5012446;28;100887;-70
2022/05/13 11:56:32;;;;;;;4.28;1.58;;;22.40;52.70;;;;;;4996294;28;99129;-70
2022/05/13 11:59:03;;;;;;;2.67;2.33;;;22.30;53.50;;;;;;5013905;28;99627;-71
2022/05/13 12:01:36;;;;;;;2.35;1.20;;;22.30;53.80;;;;;;5014333;28;99270;-70
2022/05/13 12:04:16;;;;;;;5.25;2.28;;;22.40;54.00;;;;;;5012393;28;100614;-70
2022/05/13 12:06:49;;;;;;;2.67;1.88;;;22.60;52.80;;;;;;5014247;28;98548;-70
2022/05/13 12:09:34;;;;;;;4.60;1.35;;;22.60;52.90;;;;;;5014187;28;98565;-70
2022/05/13 12:12:16;;;;;;;2.75;1.67;;;22.60;53.00;;;;;;4995364;28;101917;-70
2022/05/13 12:14:51;;;;;;;3.40;1.67;;;22.60;52.90;;;;;;5013725;28;100043;-70
2022/05/13 12:17:29;;;;;;;4.38;2.33;;;22.70;53.10;;;;;;4996613;28;97850;-70
2022/05/13 12:20:32;;;;;;;5.25;3.22;;;22.90;53.10;;;;;;4995238;28;98629;-70
2022/05/13 12:23:08;;;;;;;3.35;1.15;;;23.10;52.60;;;;;;4962706;28;100333;-70
2022/05/13 12:25:35;;;;;;;4.70;1.42;;;23.10;52.80;;;;;;5013453;28;99261;-71
2022/05/13 12:28:15;;;;;;;5.07;2.20;;;22.90;52.10;;;;;;4995632;28;98550;-70
2022/05/13 12:30:47;;;;;;;5.28;1.73;;;23.00;52.60;;;;;;5012355;28;98527;-70
2022/05/13 12:33:20;;;;;;;5.73;1.97;;;23.00;53.40;;;;;;5013451;28;99410;-71
2022/05/13 12:39:10;;;;;;;9.35;2.88;;;23.30;54.00;;;;;;5013797;28;98524;-71
2022/05/13 12:41:43;;;;;;;4.57;1.73;;;23.40;53.40;;;;;;5013703;28;99018;-71
2022/05/13 12:44:30;;;;;;;6.40;2.72;;;23.30;53.40;;;;;;4978855;28;101078;-71
2022/05/13 12:47:18;;;;;;;7.47;2.22;;;23.40;52.70;;;;;;4995335;28;98622;-71
2022/05/13 12:49:48;;;;;;;6.95;1.58;;;23.50;52.50;;;;;;4979228;28;99297;-71
2022/05/13 12:52:27;;;;;;;5.30;1.88;;;23.40;52.10;;;;;;5012559;28;99400;-70
2022/05/13 12:55:18;;;;;;;6.83;2.60;;;23.60;52.10;;;;;;5013014;28;99350;-71
2022/05/13 12:57:49;;;;;;;7.05;2.72;;;23.60;51.90;;;;;;4994657;28;101805;-70
2022/05/13 13:00:25;;;;;;;4.28;2.47;;;23.50;51.10;;;;;;4995462;28;98628;-71
2022/05/13 13:02:55;;;;;;;3.80;2.03;;;23.60;50.70;;;;;;4995253;28;99672;-71
2022/05/13 13:05:27;;;;;;;3.42;2.25;;;23.60;50.00;;;;;;5012955;28;99285;-71
2022/05/13 13:08:01;;;;;;;3.35;1.50;;;23.70;50.60;;;;;;4994673;28;99948;-71
2022/05/13 13:10:28;;;;;;;5.00;3.00;;;23.80;50.70;;;;;;5012664;28;97721;-70
2022/05/13 13:13:07;;;;;;;6.18;2.20;;;23.80;50.20;;;;;;5012922;28;98556;-71
2022/05/13 13:15:38;;;;;;;5.63;2.25;;;23.90;50.10;;;;;;5012908;28;99398;-70
2022/05/13 13:18:09;;;;;;;4.60;1.90;;;23.80;50.40;;;;;;5012296;28;99241;-71
2022/05/13 13:20:58;;;;;;;4.18;2.95;;;23.90;50.20;;;;;;5011478;28;98617;-71
2022/05/13 13:23:32;;;;;;;8.65;1.55;;;23.90;49.90;;;;;;5013373;28;99089;-71
2022/05/13 13:26:02;;;;;;;8.25;2.58;;;23.70;50.10;;;;;;4994466;28;101778;-71
2022/05/13 13:28:33;;;;;;;5.85;3.20;;;23.80;50.10;;;;;;5012612;28;98984;-71
2022/05/13 13:31:24;;;;;;;3.17;2.33;;;23.90;49.60;;;;;;5013084;28;98504;-71
2022/05/13 13:33:54;;;;;;;3.33;1.60;;;23.90;49.20;;;;;;4983501;28;98694;-71
2022/05/13 13:36:30;;;;;;;3.28;1.95;;;23.80;49.70;;;;;;5012648;28;98555;-71
2022/05/13 13:39:17;;;;;;;2.95;2.08;;;23.80;49.50;;;;;;4997727;28;98645;-70
2022/05/13 13:41:56;;;;;;;3.40;2.25;;;23.70;49.80;;;;;;5013073;28;98555;-71